sensor_id;sensor_type;location;lat;lon;timestamp;pressure;altitude;pressure_sealevel;temperature;humidity
54978;BME280;40873;47.522;19.106;2023-06-10T00:02:06;99906.47;;;16.89;100.00
54978;BME280;40873;47.522;19.106;2023-06-10T00:04:35;99907.63;;;16.87;100.00
54978;BME280;40873;47.522;19.106;2023-06-10T00:07:04;99900.03;;;16.82;100.00
54978;BME280;40873;47.522;19.106;2023-06-10T00:09:38;99904.97;;;16.77;100.00
54978;BME280;40873;47.522;19.106;2023-06-10T00:12:07;99905.69;;;16.69;100.00
54978;BME280;40873;47.522;19.106;2023-06-10T00:14:37;99895.28;;;16.66;100.00
54978;BME280;40873;47.522;19.106;2023-06-10T00:17:04;99891.94;;;16.64;100.00
54978;BME280;40873;47.522;19.106;2023-06-10T00:19:32;99894.59;;;16.64;100.00
54978;BME280;40873;47.522;19.106;2023-06-10T00:22:00;99892.91;;;16.63;100.00
54978;BME280;40873;47.522;19.106;2023-06-10T00:24:27;99885.63;;;16.56;100.00
54978;BME280;40873;47.522;19.106;2023-06-10T00:26:54;99893.06;;;16.52;100.00
54978;BME280;40873;47.522;19.106;2023-06-10T00:29:21;99893.75;;;16.54;100.00
54978;BME280;40873;47.522;19.106;2023-06-10T00:31:48;99893.91;;;16.53;100.00
54978;BME280;40873;47.522;19.106;2023-06-10T00:34:15;99897.41;;;16.53;100.00
54978;BME280;40873;47.522;19.106;2023-06-10T00:36:42;99898.09;;;16.45;100.00
54978;BME280;40873;47.522;19.106;2023-06-10T00:39:10;99903.59;;;16.44;100.00
54978;BME280;40873;47.522;19.106;2023-06-10T00:41:37;99895.44;;;16.45;100.00
54978;BME280;40873;47.522;19.106;2023-06-10T00:44:04;99899.50;;;16.40;100.00
54978;BME280;40873;47.522;19.106;2023-06-10T00:46:31;99902.88;;;16.32;100.00
54978;BME280;40873;47.522;19.106;2023-06-10T00:49:00;99897.16;;;16.27;100.00
54978;BME280;40873;47.522;19.106;2023-06-10T00:51:27;99898.41;;;16.23;100.00
54978;BME280;40873;47.522;19.106;2023-06-10T00:53:55;99908.19;;;16.23;100.00
54978;BME280;40873;47.522;19.106;2023-06-10T00:56:22;99909.31;;;16.20;100.00
54978;BME280;40873;47.522;19.106;2023-06-10T00:58:49;99914.50;;;16.22;100.00
54978;BME280;40873;47.522;19.106;2023-06-10T01:01:17;99906.53;;;16.22;100.00
54978;BME280;40873;47.522;19.106;2023-06-10T01:03:44;99903.97;;;16.20;100.00
54978;BME280;40873;47.522;19.106;2023-06-10T01:11:49;99909.16;;;16.12;100.00
54978;BME280;40873;47.522;19.106;2023-06-10T01:14:19;99905.97;;;16.08;100.00
54978;BME280;40873;47.522;19.106;2023-06-10T01:16:47;99908.75;;;16.07;100.00
54978;BME280;40873;47.522;19.106;2023-06-10T01:19:15;99913.25;;;16.06;100.00
54978;BME280;40873;47.522;19.106;2023-06-10T01:21:44;99906.50;;;16.02;100.00
54978;BME280;40873;47.522;19.106;2023-06-10T01:24:15;99905.66;;;16.02;100.00
54978;BME280;40873;47.522;19.106;2023-06-10T01:26:48;99904.00;;;16.01;100.00
54978;BME280;40873;47.522;19.106;2023-06-10T01:29:46;99906.91;;;15.98;100.00
54978;BME280;40873;47.522;19.106;2023-06-10T01:32:37;99914.03;;;15.97;100.00
54978;BME280;40873;47.522;19.106;2023-06-10T01:35:06;99911.38;;;15.97;100.00
54978;BME280;40873;47.522;19.106;2023-06-10T01:37:37;99904.38;;;15.96;100.00
54978;BME280;40873;47.522;19.106;2023-06-10T01:40:06;99903.41;;;15.97;100.00
54978;BME280;40873;47.522;19.106;2023-06-10T01:42:33;99910.69;;;15.95;100.00
54978;BME280;40873;47.522;19.106;2023-06-10T01:45:01;99913.75;;;15.90;100.00
54978;BME280;40873;47.522;19.106;2023-06-10T01:47:28;99903.41;;;15.87;100.00
54978;BME280;40873;47.522;19.106;2023-06-10T01:49:55;99902.41;;;15.88;100.00
54978;BME280;40873;47.522;19.106;2023-06-10T01:52:22;99905.38;;;15.85;100.00
54978;BME280;40873;47.522;19.106;2023-06-10T01:54:50;99910.69;;;15.85;100.00
54978;BME280;40873;47.522;19.106;2023-06-10T01:57:16;99906.31;;;15.84;100.00
54978;BME280;40873;47.522;19.106;2023-06-10T01:59:44;99905.47;;;15.84;100.00
54978;BME280;40873;47.522;19.106;2023-06-10T02:02:11;99905.75;;;15.81;100.00
54978;BME280;40873;47.522;19.106;2023-06-10T02:04:38;99906.88;;;15.78;100.00
54978;BME280;40873;47.522;19.106;2023-06-10T02:07:05;99914.72;;;15.80;100.00
54978;BME280;40873;47.522;19.106;2023-06-10T02:09:32;99906.88;;;15.78;100.00
54978;BME280;40873;47.522;19.106;2023-06-10T02:12:03;99908.00;;;15.76;100.00
54978;BME280;40873;47.522;19.106;2023-06-10T02:14:32;99916.38;;;15.71;100.00
54978;BME280;40873;47.522;19.106;2023-06-10T02:16:59;99910.19;;;15.71;100.00
54978;BME280;40873;47.522;19.106;2023-06-10T02:19:26;99914.00;;;15.68;100.00
54978;BME280;40873;47.522;19.106;2023-06-10T02:21:54;99910.78;;;15.65;100.00
54978;BME280;40873;47.522;19.106;2023-06-10T02:24:21;99915.13;;;15.66;100.00
54978;BME280;40873;47.522;19.106;2023-06-10T02:26:48;99917.63;;;15.67;100.00
54978;BME280;40873;47.522;19.106;2023-06-10T02:29:16;99910.78;;;15.65;100.00
54978;BME280;40873;47.522;19.106;2023-06-10T02:31:42;99914.28;;;15.65;100.00
54978;BME280;40873;47.522;19.106;2023-06-10T02:34:10;99904.59;;;15.64;100.00
54978;BME280;40873;47.522;19.106;2023-06-10T02:36:36;99917.47;;;15.69;100.00
54978;BME280;40873;47.522;19.106;2023-06-10T02:39:04;99912.63;;;15.74;100.00
54978;BME280;40873;47.522;19.106;2023-06-10T02:41:31;99912.75;;;15.72;100.00
54978;BME280;40873;47.522;19.106;2023-06-10T02:43:58;99907.28;;;15.74;100.00
54978;BME280;40873;47.522;19.106;2023-06-10T02:46:25;99913.69;;;15.71;100.00
54978;BME280;40873;47.522;19.106;2023-06-10T02:48:52;99913.16;;;15.68;100.00
54978;BME280;40873;47.522;19.106;2023-06-10T02:51:19;99917.34;;;15.70;100.00
54978;BME280;40873;47.522;19.106;2023-06-10T02:53:47;99912.88;;;15.71;100.00
54978;BME280;40873;47.522;19.106;2023-06-10T02:56:16;99917.94;;;15.74;100.00
54978;BME280;40873;47.522;19.106;2023-06-10T02:58:43;99918.78;;;15.74;100.00
54978;BME280;40873;47.522;19.106;2023-06-10T03:01:10;99917.66;;;15.77;100.00
54978;BME280;40873;47.522;19.106;2023-06-10T03:03:37;99922.72;;;15.80;100.00
54978;BME280;40873;47.522;19.106;2023-06-10T03:06:10;99922.41;;;15.83;100.00
54978;BME280;40873;47.522;19.106;2023-06-10T03:08:37;99920.19;;;15.88;100.00
54978;BME280;40873;47.522;19.106;2023-06-10T03:11:04;99929.72;;;15.90;100.00
54978;BME280;40873;47.522;19.106;2023-06-10T03:13:32;99928.19;;;15.98;100.00
54978;BME280;40873;47.522;19.106;2023-06-10T03:15:58;99927.78;;;16.02;100.00
54978;BME280;40873;47.522;19.106;2023-06-10T03:18:27;99926.53;;;16.06;100.00
54978;BME280;40873;47.522;19.106;2023-06-10T03:20:54;99927.78;;;16.12;100.00
54978;BME280;40873;47.522;19.106;2023-06-10T03:23:22;99925.72;;;16.15;100.00
54978;BME280;40873;47.522;19.106;2023-06-10T03:25:49;99934.97;;;16.21;100.00
54978;BME280;40873;47.522;19.106;2023-06-10T03:28:17;99934.69;;;16.24;100.00
54978;BME280;40873;47.522;19.106;2023-06-10T03:30:43;99937.91;;;16.28;100.00
54978;BME280;40873;47.522;19.106;2023-06-10T03:33:11;99933.00;;;16.33;100.00
54978;BME280;40873;47.522;19.106;2023-06-10T03:35:38;99933.41;;;16.38;100.00
54978;BME280;40873;47.522;19.106;2023-06-10T03:38:05;99932.88;;;16.44;100.00
54978;BME280;40873;47.522;19.106;2023-06-10T03:40:32;99938.72;;;16.48;100.00
54978;BME280;40873;47.522;19.106;2023-06-10T03:43:00;99934.28;;;16.48;100.00
54978;BME280;40873;47.522;19.106;2023-06-10T03:45:27;99934.69;;;16.53;100.00
54978;BME280;40873;47.522;19.106;2023-06-10T03:47:57;99924.88;;;16.54;100.00
54978;BME280;40873;47.522;19.106;2023-06-10T03:50:24;99930.75;;;16.57;100.00
54978;BME280;40873;47.522;19.106;2023-06-10T03:52:51;99924.16;;;16.61;100.00
54978;BME280;40873;47.522;19.106;2023-06-10T03:55:18;99926.25;;;16.67;100.00
54978;BME280;40873;47.522;19.106;2023-06-10T03:57:49;99923.19;;;16.62;100.00
54978;BME280;40873;47.522;19.106;2023-06-10T04:00:16;99922.34;;;16.62;100.00
54978;BME280;40873;47.522;19.106;2023-06-10T04:02:44;99916.06;;;16.63;100.00
54978;BME280;40873;47.522;19.106;2023-06-10T04:05:17;99927.81;;;16.60;100.00
54978;BME280;40873;47.522;19.106;2023-06-10T04:07:44;99922.78;;;16.57;100.00
54978;BME280;40873;47.522;19.106;2023-06-10T04:10:11;99922.09;;;16.55;100.00
54978;BME280;40873;47.522;19.106;2023-06-10T04:12:39;99916.75;;;16.55;100.00
54978;BME280;40873;47.522;19.106;2023-06-10T04:15:06;99918.84;;;16.52;100.00
54978;BME280;40873;47.522;19.106;2023-06-10T04:17:34;99926.28;;;16.48;100.00
54978;BME280;40873;47.522;19.106;2023-06-10T04:20:02;99929.78;;;16.49;100.00
54978;BME280;40873;47.522;19.106;2023-06-10T04:22:31;99926.56;;;16.45;100.00
54978;BME280;40873;47.522;19.106;2023-06-10T04:24:57;99922.75;;;16.48;100.00
54978;BME280;40873;47.522;19.106;2023-06-10T04:27:26;99928.53;;;16.43;100.00
54978;BME280;40873;47.522;19.106;2023-06-10T04:29:53;99940.03;;;16.43;100.00
54978;BME280;40873;47.522;19.106;2023-06-10T04:32:20;99936.66;;;16.41;100.00
54978;BME280;40873;47.522;19.106;2023-06-10T04:34:48;99934.13;;;16.40;100.00
54978;BME280;40873;47.522;19.106;2023-06-10T04:37:15;99931.75;;;16.37;100.00
54978;BME280;40873;47.522;19.106;2023-06-10T04:39:42;99930.63;;;16.39;100.00
54978;BME280;40873;47.522;19.106;2023-06-10T04:42:10;99934.41;;;16.37;100.00
54978;BME280;40873;47.522;19.106;2023-06-10T04:44:37;99932.88;;;16.34;100.00
54978;BME280;40873;47.522;19.106;2023-06-10T04:47:05;99933.72;;;16.35;100.00
54978;BME280;40873;47.522;19.106;2023-06-10T04:49:34;99926.84;;;16.32;100.00
54978;BME280;40873;47.522;19.106;2023-06-10T04:52:03;99935.66;;;16.33;100.00
54978;BME280;40873;47.522;19.106;2023-06-10T04:54:31;99928.50;;;16.33;100.00
54978;BME280;40873;47.522;19.106;2023-06-10T04:56:59;99922.63;;;16.30;100.00
54978;BME280;40873;47.522;19.106;2023-06-10T04:59:27;99925.44;;;16.28;100.00
54978;BME280;40873;47.522;19.106;2023-06-10T05:01:54;99918.16;;;16.30;100.00
54978;BME280;40873;47.522;19.106;2023-06-10T05:04:22;99925.00;;;16.33;100.00
54978;BME280;40873;47.522;19.106;2023-06-10T05:06:49;99925.72;;;16.35;100.00
54978;BME280;40873;47.522;19.106;2023-06-10T05:09:16;99922.91;;;16.36;100.00
54978;BME280;40873;47.522;19.106;2023-06-10T05:11:43;99930.63;;;16.39;100.00
54978;BME280;40873;47.522;19.106;2023-06-10T05:14:11;99922.38;;;16.42;100.00
54978;BME280;40873;47.522;19.106;2023-06-10T05:16:38;99932.72;;;16.45;100.00
54978;BME280;40873;47.522;19.106;2023-06-10T05:19:05;99926.16;;;16.50;100.00
54978;BME280;40873;47.522;19.106;2023-06-10T05:21:34;99931.19;;;16.53;100.00
54978;BME280;40873;47.522;19.106;2023-06-10T05:24:01;99927.25;;;16.57;100.00
54978;BME280;40873;47.522;19.106;2023-06-10T05:26:29;99931.19;;;16.62;100.00
54978;BME280;40873;47.522;19.106;2023-06-10T05:28:58;99933.03;;;16.71;100.00
54978;BME280;40873;47.522;19.106;2023-06-10T05:31:25;99934.00;;;16.80;100.00
54978;BME280;40873;47.522;19.106;2023-06-10T05:33:52;99940.72;;;16.84;100.00
54978;BME280;40873;47.522;19.106;2023-06-10T05:36:19;99939.72;;;16.95;100.00
54978;BME280;40873;47.522;19.106;2023-06-10T05:38:47;99945.31;;;17.02;100.00
54978;BME280;40873;47.522;19.106;2023-06-10T05:41:14;99941.91;;;17.09;100.00
54978;BME280;40873;47.522;19.106;2023-06-10T05:43:40;99948.50;;;17.15;100.00
54978;BME280;40873;47.522;19.106;2023-06-10T05:46:08;99948.50;;;17.15;100.00
54978;BME280;40873;47.522;19.106;2023-06-10T05:48:34;99955.09;;;17.20;100.00
54978;BME280;40873;47.522;19.106;2023-06-10T05:51:02;99948.47;;;17.24;100.00
54978;BME280;40873;47.522;19.106;2023-06-10T05:53:28;99950.44;;;17.32;100.00
54978;BME280;40873;47.522;19.106;2023-06-10T05:55:56;99949.13;;;17.46;100.00
54978;BME280;40873;47.522;19.106;2023-06-10T05:58:24;99953.56;;;17.55;100.00
54978;BME280;40873;47.522;19.106;2023-06-10T06:00:51;99943.31;;;17.60;100.00
54978;BME280;40873;47.522;19.106;2023-06-10T06:03:18;99941.16;;;17.64;100.00
54978;BME280;40873;47.522;19.106;2023-06-10T06:05:46;99941.16;;;17.64;100.00
54978;BME280;40873;47.522;19.106;2023-06-10T06:08:13;99937.38;;;17.66;100.00
54978;BME280;40873;47.522;19.106;2023-06-10T06:10:40;99943.84;;;17.64;100.00
54978;BME280;40873;47.522;19.106;2023-06-10T06:13:07;99939.19;;;17.66;100.00
54978;BME280;40873;47.522;19.106;2023-06-10T06:15:34;99944.53;;;17.66;100.00
54978;BME280;40873;47.522;19.106;2023-06-10T06:18:01;99949.84;;;17.66;100.00
54978;BME280;40873;47.522;19.106;2023-06-10T06:20:28;99955.06;;;17.67;100.00
54978;BME280;40873;47.522;19.106;2023-06-10T06:22:55;99947.34;;;17.74;100.00
54978;BME280;40873;47.522;19.106;2023-06-10T06:25:22;99950.63;;;17.86;100.00
54978;BME280;40873;47.522;19.106;2023-06-10T06:27:49;99947.34;;;18.01;100.00
54978;BME280;40873;47.522;19.106;2023-06-10T06:30:17;99949.78;;;18.13;100.00
54978;BME280;40873;47.522;19.106;2023-06-10T06:32:44;99960.53;;;18.21;100.00
54978;BME280;40873;47.522;19.106;2023-06-10T06:35:11;99962.09;;;18.23;100.00
54978;BME280;40873;47.522;19.106;2023-06-10T06:37:38;99961.25;;;18.23;100.00
54978;BME280;40873;47.522;19.106;2023-06-10T06:40:05;99960.41;;;18.22;100.00
54978;BME280;40873;47.522;19.106;2023-06-10T06:42:34;99963.91;;;18.23;100.00
54978;BME280;40873;47.522;19.106;2023-06-10T06:45:01;99965.50;;;18.16;100.00
54978;BME280;40873;47.522;19.106;2023-06-10T06:47:28;99968.84;;;18.18;100.00
54978;BME280;40873;47.522;19.106;2023-06-10T06:49:55;99973.78;;;18.13;100.00
54978;BME280;40873;47.522;19.106;2023-06-10T06:52:22;99969.38;;;18.21;100.00
54978;BME280;40873;47.522;19.106;2023-06-10T06:54:49;99975.19;;;18.34;100.00
54978;BME280;40873;47.522;19.106;2023-06-10T06:57:16;99975.81;;;18.46;100.00
54978;BME280;40873;47.522;19.106;2023-06-10T06:59:43;99970.38;;;18.56;100.00
54978;BME280;40873;47.522;19.106;2023-06-10T07:02:10;99969.03;;;18.70;100.00
54978;BME280;40873;47.522;19.106;2023-06-10T07:04:37;99970.19;;;18.85;100.00
54978;BME280;40873;47.522;19.106;2023-06-10T07:07:07;99971.31;;;19.00;100.00
54978;BME280;40873;47.522;19.106;2023-06-10T07:09:35;99964.56;;;19.14;100.00
54978;BME280;40873;47.522;19.106;2023-06-10T07:12:02;99973.88;;;19.36;100.00
54978;BME280;40873;47.522;19.106;2023-06-10T07:14:29;99976.59;;;19.62;100.00
54978;BME280;40873;47.522;19.106;2023-06-10T07:16:57;99971.84;;;19.90;100.00
54978;BME280;40873;47.522;19.106;2023-06-10T07:19:24;99971.41;;;20.11;100.00
54978;BME280;40873;47.522;19.106;2023-06-10T07:21:51;99969.25;;;20.22;100.00
54978;BME280;40873;47.522;19.106;2023-06-10T07:24:18;99977.47;;;20.29;100.00
54978;BME280;40873;47.522;19.106;2023-06-10T07:26:47;99974.78;;;20.29;100.00
54978;BME280;40873;47.522;19.106;2023-06-10T07:29:14;99975.16;;;20.34;100.00
54978;BME280;40873;47.522;19.106;2023-06-10T07:31:41;99975.84;;;20.44;100.00
54978;BME280;40873;47.522;19.106;2023-06-10T07:34:08;99975.53;;;20.47;100.00
54978;BME280;40873;47.522;19.106;2023-06-10T07:36:35;99975.72;;;20.62;100.00
54978;BME280;40873;47.522;19.106;2023-06-10T07:39:04;99979.22;;;20.71;100.00
54978;BME280;40873;47.522;19.106;2023-06-10T07:41:31;99966.34;;;20.74;100.00
54978;BME280;40873;47.522;19.106;2023-06-10T07:43:58;99976.41;;;20.72;100.00
54978;BME280;40873;47.522;19.106;2023-06-10T07:46:25;99976.72;;;20.69;100.00
54978;BME280;40873;47.522;19.106;2023-06-10T07:48:54;99981.06;;;20.78;100.00
54978;BME280;40873;47.522;19.106;2023-06-10T07:51:21;99976.41;;;20.72;100.00
54978;BME280;40873;47.522;19.106;2023-06-10T07:53:49;99979.94;;;20.81;100.00
54978;BME280;40873;47.522;19.106;2023-06-10T07:56:16;99985.13;;;20.74;100.00
54978;BME280;40873;47.522;19.106;2023-06-10T07:58:43;99981.78;;;20.72;100.00
54978;BME280;40873;47.522;19.106;2023-06-10T08:01:10;99983.44;;;20.73;100.00
54978;BME280;40873;47.522;19.106;2023-06-10T08:03:37;99981.59;;;20.74;100.00
54978;BME280;40873;47.522;19.106;2023-06-10T08:06:04;99979.41;;;20.77;100.00
54978;BME280;40873;47.522;19.106;2023-06-10T08:08:32;99975.56;;;20.88;100.00
54978;BME280;40873;47.522;19.106;2023-06-10T08:11:01;99972.38;;;21.01;100.00
54978;BME280;40873;47.522;19.106;2023-06-10T08:13:28;99970.34;;;21.11;100.00
54978;BME280;40873;47.522;19.106;2023-06-10T08:15:55;99972.34;;;21.25;100.00
54978;BME280;40873;47.522;19.106;2023-06-10T08:18:22;99967.81;;;21.26;100.00
54978;BME280;40873;47.522;19.106;2023-06-10T08:20:49;99965.13;;;21.42;100.00
54978;BME280;40873;47.522;19.106;2023-06-10T08:23:16;99969.44;;;21.59;100.00
54978;BME280;40873;47.522;19.106;2023-06-10T08:25:43;99969.41;;;21.68;100.00
54978;BME280;40873;47.522;19.106;2023-06-10T08:28:10;99964.53;;;21.71;100.00
54978;BME280;40873;47.522;19.106;2023-06-10T08:30:37;99959.16;;;21.71;100.00
54978;BME280;40873;47.522;19.106;2023-06-10T08:33:05;99961.69;;;21.65;100.00
54978;BME280;40873;47.522;19.106;2023-06-10T08:35:32;99960.31;;;21.69;100.00
54978;BME280;40873;47.522;19.106;2023-06-10T08:37:59;99955.00;;;21.60;100.00
54978;BME280;40873;47.522;19.106;2023-06-10T08:40:26;99955.78;;;21.69;100.00
54978;BME280;40873;47.522;19.106;2023-06-10T08:43:08;99955.66;;;21.71;100.00
54978;BME280;40873;47.522;19.106;2023-06-10T08:45:36;99943.09;;;21.94;100.00
54978;BME280;40873;47.522;19.106;2023-06-10T08:48:05;99936.69;;;22.11;100.00
54978;BME280;40873;47.522;19.106;2023-06-10T08:50:37;99948.28;;;22.35;100.00
54978;BME280;40873;47.522;19.106;2023-06-10T08:53:06;99952.94;;;22.41;100.00
54978;BME280;40873;47.522;19.106;2023-06-10T08:55:38;99944.81;;;22.49;100.00
54978;BME280;40873;47.522;19.106;2023-06-10T08:58:08;99938.41;;;22.50;100.00
54978;BME280;40873;47.522;19.106;2023-06-10T09:00:36;99941.72;;;22.60;100.00
54978;BME280;40873;47.522;19.106;2023-06-10T09:03:04;99936.38;;;22.75;100.00
54978;BME280;40873;47.522;19.106;2023-06-10T09:05:33;99929.50;;;22.73;100.00
54978;BME280;40873;47.522;19.106;2023-06-10T09:08:01;99929.75;;;22.86;100.00
54978;BME280;40873;47.522;19.106;2023-06-10T09:12:59;99926.53;;;22.90;100.00
54978;BME280;40873;47.522;19.106;2023-06-10T09:15:28;99923.22;;;23.03;100.00
54978;BME280;40873;47.522;19.106;2023-06-10T09:17:55;99908.84;;;23.25;100.00
54978;BME280;40873;47.522;19.106;2023-06-10T09:20:23;99919.97;;;23.52;100.00
54978;BME280;40873;47.522;19.106;2023-06-10T09:22:50;99917.41;;;23.73;100.00
54978;BME280;40873;47.522;19.106;2023-06-10T09:25:17;99920.56;;;23.62;100.00
54978;BME280;40873;47.522;19.106;2023-06-10T09:27:49;99914.31;;;23.47;96.00
54978;BME280;40873;47.522;19.106;2023-06-10T09:30:27;99919.06;;;23.30;100.00
54978;BME280;40873;47.522;19.106;2023-06-10T09:32:56;99916.44;;;23.07;100.00
54978;BME280;40873;47.522;19.106;2023-06-10T09:35:28;99920.97;;;22.69;100.00
54978;BME280;40873;47.522;19.106;2023-06-10T09:37:58;99917.69;;;22.13;100.00
54978;BME280;40873;47.522;19.106;2023-06-10T09:40:25;99932.47;;;21.78;100.00
54978;BME280;40873;47.522;19.106;2023-06-10T09:42:55;99924.31;;;21.55;100.00
54978;BME280;40873;47.522;19.106;2023-06-10T09:45:23;99927.41;;;21.36;100.00
54978;BME280;40873;47.522;19.106;2023-06-10T09:47:54;99925.91;;;21.33;100.00
54978;BME280;40873;47.522;19.106;2023-06-10T09:50:21;99925.41;;;21.21;100.00
54978;BME280;40873;47.522;19.106;2023-06-10T09:52:49;99925.56;;;21.20;100.00
54978;BME280;40873;47.522;19.106;2023-06-10T09:55:17;99921.88;;;21.21;100.00
54978;BME280;40873;47.522;19.106;2023-06-10T09:57:44;99922.00;;;21.27;100.00
54978;BME280;40873;47.522;19.106;2023-06-10T10:00:16;99914.97;;;21.34;100.00
54978;BME280;40873;47.522;19.106;2023-06-10T10:02:53;99922.84;;;21.44;100.00
54978;BME280;40873;47.522;19.106;2023-06-10T10:05:21;99917.59;;;21.59;100.00
54978;BME280;40873;47.522;19.106;2023-06-10T10:07:50;99920.19;;;22.14;100.00
54978;BME280;40873;47.522;19.106;2023-06-10T10:10:22;99924.13;;;22.73;100.00
54978;BME280;40873;47.522;19.106;2023-06-10T10:12:56;99914.13;;;23.04;100.00
54978;BME280;40873;47.522;19.106;2023-06-10T10:15:27;99918.56;;;23.12;100.00
54978;BME280;40873;47.522;19.106;2023-06-10T10:18:03;99921.56;;;23.17;100.00
54978;BME280;40873;47.522;19.106;2023-06-10T10:20:33;99913.19;;;23.27;100.00
54978;BME280;40873;47.522;19.106;2023-06-10T10:23:03;99918.22;;;23.44;100.00
54978;BME280;40873;47.522;19.106;2023-06-10T10:25:34;99914.31;;;23.47;100.00
54978;BME280;40873;47.522;19.106;2023-06-10T10:30:45;99912.94;;;23.51;100.00
54978;BME280;40873;47.522;19.106;2023-06-10T10:33:19;99894.34;;;23.56;100.00
54978;BME280;40873;47.522;19.106;2023-06-10T10:35:47;99910.69;;;23.55;100.00
54978;BME280;40873;47.522;19.106;2023-06-10T10:38:15;99902.59;;;23.55;100.00
54978;BME280;40873;47.522;19.106;2023-06-10T10:40:42;99904.75;;;23.59;100.00
54978;BME280;40873;47.522;19.106;2023-06-10T10:43:11;99894.53;;;23.69;100.00
54978;BME280;40873;47.522;19.106;2023-06-10T10:45:39;99898.19;;;23.62;94.32
54978;BME280;40873;47.522;19.106;2023-06-10T10:48:08;99897.63;;;23.66;98.83
54978;BME280;40873;47.522;19.106;2023-06-10T10:50:41;99898.53;;;23.73;98.03
54978;BME280;40873;47.522;19.106;2023-06-10T10:53:08;99885.75;;;24.18;95.64
54978;BME280;40873;47.522;19.106;2023-06-10T10:55:38;99884.63;;;24.70;96.24
54978;BME280;40873;47.522;19.106;2023-06-10T10:58:06;99889.88;;;24.78;91.76
54978;BME280;40873;47.522;19.106;2023-06-10T11:00:36;99877.69;;;25.17;88.44
54978;BME280;40873;47.522;19.106;2023-06-10T11:03:08;99875.28;;;25.29;89.54
54978;BME280;40873;47.522;19.106;2023-06-10T11:05:44;99874.00;;;25.18;89.56
54978;BME280;40873;47.522;19.106;2023-06-10T11:11:18;99869.09;;;25.35;86.73
54978;BME280;40873;47.522;19.106;2023-06-10T11:16:28;99860.13;;;25.00;90.19
54978;BME280;40873;47.522;19.106;2023-06-10T11:18:56;99863.38;;;24.88;90.56
54978;BME280;40873;47.522;19.106;2023-06-10T11:21:24;99865.75;;;24.70;87.61
54978;BME280;40873;47.522;19.106;2023-06-10T11:23:57;99860.41;;;24.77;91.55
54978;BME280;40873;47.522;19.106;2023-06-10T11:29:04;99861.84;;;24.30;92.13
54978;BME280;40873;47.522;19.106;2023-06-10T11:34:03;99860.41;;;24.13;90.68
54978;BME280;40873;47.522;19.106;2023-06-10T11:36:32;99854.19;;;24.12;94.68
54978;BME280;40873;47.522;19.106;2023-06-10T11:39:02;99866.25;;;23.95;93.28
54978;BME280;40873;47.522;19.106;2023-06-10T11:41:31;99850.00;;;23.88;91.23
54978;BME280;40873;47.522;19.106;2023-06-10T11:44:04;99856.63;;;23.86;96.65
54978;BME280;40873;47.522;19.106;2023-06-10T11:46:31;99851.75;;;23.96;95.27
54978;BME280;40873;47.522;19.106;2023-06-10T11:48:59;99852.78;;;24.16;94.25
54978;BME280;40873;47.522;19.106;2023-06-10T11:51:33;99853.03;;;24.64;95.08
54978;BME280;40873;47.522;19.106;2023-06-10T11:54:00;99853.19;;;24.84;92.13
54978;BME280;40873;47.522;19.106;2023-06-10T11:56:29;99841.44;;;24.98;86.03
54978;BME280;40873;47.522;19.106;2023-06-10T11:59:06;99847.38;;;25.15;83.45
54978;BME280;40873;47.522;19.106;2023-06-10T12:01:40;99847.06;;;25.03;82.41
54978;BME280;40873;47.522;19.106;2023-06-10T12:04:15;99838.81;;;24.77;84.16
54978;BME280;40873;47.522;19.106;2023-06-10T12:06:48;99836.16;;;25.59;79.68
54978;BME280;40873;47.522;19.106;2023-06-10T12:11:58;99835.31;;;26.93;72.92
54978;BME280;40873;47.522;19.106;2023-06-10T12:17:35;99816.19;;;26.61;67.74
54978;BME280;40873;47.522;19.106;2023-06-10T12:20:08;99818.00;;;27.14;75.19
54978;BME280;40873;47.522;19.106;2023-06-10T12:22:40;99814.88;;;26.97;70.79
54978;BME280;40873;47.522;19.106;2023-06-10T12:25:09;99812.00;;;26.39;72.13
54978;BME280;40873;47.522;19.106;2023-06-10T12:27:40;99807.19;;;26.14;74.60
54978;BME280;40873;47.522;19.106;2023-06-10T12:30:19;99803.22;;;26.90;69.73
54978;BME280;40873;47.522;19.106;2023-06-10T12:32:47;99802.19;;;27.55;67.85
54978;BME280;40873;47.522;19.106;2023-06-10T12:35:19;99792.59;;;27.98;64.41
54978;BME280;40873;47.522;19.106;2023-06-10T12:38:02;99789.00;;;27.27;65.41
54978;BME280;40873;47.522;19.106;2023-06-10T12:40:39;99788.00;;;27.15;66.34
54978;BME280;40873;47.522;19.106;2023-06-10T12:43:10;99780.22;;;28.02;65.80
54978;BME280;40873;47.522;19.106;2023-06-10T12:45:39;99785.84;;;28.57;62.10
54978;BME280;40873;47.522;19.106;2023-06-10T12:48:18;99776.50;;;28.96;63.54
54978;BME280;40873;47.522;19.106;2023-06-10T12:50:51;99776.69;;;28.33;64.27
54978;BME280;40873;47.522;19.106;2023-06-10T12:53:19;99782.88;;;27.83;67.58
54978;BME280;40873;47.522;19.106;2023-06-10T12:55:50;99780.81;;;27.79;69.34
54978;BME280;40873;47.522;19.106;2023-06-10T12:58:21;99775.84;;;27.31;70.85
54978;BME280;40873;47.522;19.106;2023-06-10T13:00:48;99781.16;;;26.99;72.49
54978;BME280;40873;47.522;19.106;2023-06-10T13:03:16;99774.63;;;27.65;68.64
54978;BME280;40873;47.522;19.106;2023-06-10T13:05:43;99776.50;;;27.65;68.75
54978;BME280;40873;47.522;19.106;2023-06-10T13:08:11;99776.22;;;27.41;70.74
54978;BME280;40873;47.522;19.106;2023-06-10T13:10:38;99785.91;;;26.97;69.82
54978;BME280;40873;47.522;19.106;2023-06-10T13:13:05;99780.59;;;26.64;70.62
54978;BME280;40873;47.522;19.106;2023-06-10T13:15:34;99777.25;;;26.56;72.79
54978;BME280;40873;47.522;19.106;2023-06-10T13:18:09;99781.44;;;26.25;76.66